Time;durP1;ratioP1;P1;durP2;ratioP2;P2;SDS_P1;SDS_P2;PMS_P1;PMS_P2;Temp;Humidity;BMP_temperature;BMP_pressure;BME280_temperature;BME280_humidity;BME280_pressure;Samples;Min_cycle;Max_cycle;Signal;HPM_P1;HPM_P2
2022/08/20 00:01:40;;;;;;;6.53;5.75;;;20.30;99.90;;;;;;1902056;75;21110;-85
2022/08/20 00:04:32;;;;;;;7.20;5.50;;;20.40;99.90;;;;;;1903106;75;21106;-90
2022/08/20 00:07:23;;;;;;;6.60;5.85;;;20.40;99.90;;;;;;1900277;75;21105;-84
2022/08/20 00:10:15;;;;;;;6.33;5.72;;;20.40;99.90;;;;;;1884800;75;21144;-87
2022/08/20 00:13:10;;;;;;;6.62;5.53;;;20.40;99.90;;;;;;1915249;75;21106;-87
2022/08/20 00:16:04;;;;;;;5.87;5.28;;;20.40;99.90;;;;;;1890279;75;21062;-87
2022/08/20 00:18:55;;;;;;;6.97;5.97;;;20.40;99.90;;;;;;1884877;75;21126;-88
2022/08/20 00:21:47;;;;;;;7.03;5.70;;;20.40;99.90;;;;;;1889745;75;21055;-88
2022/08/20 00:24:41;;;;;;;6.70;5.55;;;20.30;99.90;;;;;;1884721;75;21055;-83
2022/08/20 00:27:32;;;;;;;6.65;5.87;;;20.30;99.90;;;;;;1884535;75;21557;-86
2022/08/20 00:33:06;;;;;;;6.05;5.50;;;20.30;99.90;;;;;;1939983;72;22219;-85
2022/08/20 00:35:58;;;;;;;6.42;5.78;;;20.30;99.90;;;;;;1882265;75;21138;-84
2022/08/20 00:38:49;;;;;;;7.50;5.28;;;20.30;99.90;;;;;;1905173;75;21200;-84
2022/08/20 00:41:40;;;;;;;6.25;5.28;;;20.20;99.90;;;;;;1873447;76;21164;-84
2022/08/20 00:44:31;;;;;;;6.58;5.92;;;20.20;99.90;;;;;;1897638;75;21108;-85
2022/08/20 00:50:05;;;;;;;8.10;6.00;;;20.10;99.90;;;;;;1932779;72;22346;-84
2022/08/20 00:52:57;;;;;;;6.15;5.58;;;20.10;99.90;;;;;;1886935;75;21120;-84
2022/08/20 00:55:48;;;;;;;6.58;5.97;;;20.10;99.90;;;;;;1895877;75;21078;-84
2022/08/20 00:58:43;;;;;;;8.73;5.60;;;20.10;99.90;;;;;;1917148;75;21072;-84
2022/08/20 01:01:35;;;;;;;7.22;5.60;;;20.00;99.90;;;;;;1903873;75;21165;-84
2022/08/20 01:04:32;;;;;;;6.72;5.92;;;20.00;99.90;;;;;;1896233;75;21124;-85
2022/08/20 01:07:31;;;;;;;5.72;5.22;;;19.90;99.90;;;;;;1901038;75;21066;-87
2022/08/20 01:13:02;;;;;;;6.70;5.67;;;19.80;99.90;;;;;;1947666;72;22579;-87
2022/08/20 01:15:56;;;;;;;6.12;5.55;;;19.80;99.90;;;;;;1896597;75;21071;-88
2022/08/20 01:18:47;;;;;;;9.95;6.17;;;19.70;99.90;;;;;;1873327;75;21503;-88
2022/08/20 01:24:21;;;;;;;7.12;6.10;;;19.70;99.90;;;;;;1947584;72;22283;-86
2022/08/20 01:27:13;;;;;;;6.55;5.95;;;19.70;99.90;;;;;;1907727;74;21109;-87
2022/08/20 01:30:07;;;;;;;6.12;5.53;;;19.70;99.90;;;;;;1911315;74;21044;-87
2022/08/20 01:32:59;;;;;;;8.70;6.17;;;19.70;99.90;;;;;;1905400;75;21083;-87
2022/08/20 01:35:51;;;;;;;6.30;5.70;;;19.70;99.90;;;;;;1907004;75;21211;-87
2022/08/20 01:38:48;;;;;;;6.72;6.05;;;19.60;99.90;;;;;;1905336;74;21068;-84
2022/08/20 01:41:51;;;;;;;6.83;6.22;;;19.50;99.90;;;;;;1918842;74;21192;-84
2022/08/20 01:44:45;;;;;;;5.83;5.33;;;19.40;99.90;;;;;;1905253;75;21600;-83
2022/08/20 01:47:43;;;;;;;7.83;5.67;;;19.30;99.90;;;;;;1905222;75;21052;-83
2022/08/20 01:50:39;;;;;;;8.08;5.95;;;19.30;99.90;;;;;;1905413;75;21161;-83
2022/08/20 01:53:33;;;;;;;6.00;5.30;;;19.30;99.90;;;;;;1908517;73;21140;-83
2022/08/20 01:56:28;;;;;;;6.12;5.53;;;19.30;99.90;;;;;;1905260;74;21123;-86
2022/08/20 01:59:19;;;;;;;8.05;5.28;;;19.30;99.90;;;;;;1917173;74;21039;-86
2022/08/20 02:02:12;;;;;;;5.72;5.10;;;19.50;99.90;;;;;;1905221;75;21102;-83
2022/08/20 02:05:03;;;;;;;5.20;4.67;;;19.40;99.90;;;;;;1914219;74;21144;-83
2022/08/20 02:07:55;;;;;;;6.92;5.05;;;19.50;99.90;;;;;;1919094;74;21153;-82
2022/08/20 02:13:26;;;;;;;7.62;4.87;;;19.50;99.90;;;;;;1940459;72;22248;-86
2022/08/20 02:16:17;;;;;;;6.67;4.97;;;19.60;99.90;;;;;;1895052;75;21631;-85
2022/08/20 02:21:54;;;;;;;5.60;5.10;;;19.60;99.90;;;;;;1930149;72;22216;-86
2022/08/20 02:24:46;;;;;;;6.15;5.47;;;19.60;99.90;;;;;;1884404;75;21081;-86
2022/08/20 02:30:23;;;;;;;6.10;5.55;;;19.50;99.90;;;;;;1929797;72;22874;-84
2022/08/20 02:33:19;;;;;;;5.90;5.40;;;19.50;99.90;;;;;;1876301;75;21075;-84
2022/08/20 02:38:51;;;;;;;7.33;5.62;;;19.50;99.90;;;;;;1954541;72;22078;-84
2022/08/20 02:41:42;;;;;;;6.20;5.40;;;19.40;99.90;;;;;;1940129;73;21046;-84
2022/08/20 02:44:34;;;;;;;13.55;6.40;;;19.40;99.90;;;;;;1928942;73;21031;-84
2022/08/20 02:47:26;;;;;;;7.05;5.37;;;19.40;99.90;;;;;;1935149;73;21109;-84
2022/08/20 02:58:17;;;;;;;6.55;5.95;;;19.30;99.90;;;;;;1952535;72;22126;-85
2022/08/20 03:01:11;;;;;;;6.33;5.60;;;19.20;99.90;;;;;;1873118;75;21118;-85
2022/08/20 03:04:03;;;;;;;5.92;5.05;;;19.20;99.90;;;;;;1873238;75;21092;-84
2022/08/20 03:06:54;;;;;;;6.30;5.45;;;19.20;99.90;;;;;;1879903;75;21133;-84
2022/08/20 03:09:45;;;;;;;6.90;5.87;;;19.10;99.90;;;;;;1874107;75;21051;-85
2022/08/20 03:12:37;;;;;;;8.18;6.12;;;19.10;99.90;;;;;;1903369;75;21078;-85
2022/08/20 03:15:28;;;;;;;9.15;5.72;;;19.00;99.90;;;;;;1888753;75;21079;-85
2022/08/20 03:18:21;;;;;;;6.35;5.80;;;19.00;99.90;;;;;;1878943;75;21060;-85
2022/08/20 03:21:14;;;;;;;6.05;5.45;;;18.90;99.90;;;;;;1896509;75;21064;-85
2022/08/20 03:24:06;;;;;;;6.45;5.90;;;18.90;99.90;;;;;;1887497;75;21124;-87
2022/08/20 03:26:57;;;;;;;5.87;5.37;;;18.90;99.90;;;;;;1889734;75;21114;-84
2022/08/20 03:29:49;;;;;;;8.05;6.90;;;18.90;99.90;;;;;;1873154;75;21125;-82
2022/08/20 03:35:27;;;;;;;8.80;5.65;;;18.90;99.90;;;;;;1936761;72;22201;-84
2022/08/20 03:38:20;;;;;;;6.28;5.67;;;19.00;99.90;;;;;;1902681;75;21062;-84
2022/08/20 03:41:13;;;;;;;5.50;4.90;;;19.00;99.90;;;;;;1885114;75;21083;-84
2022/08/20 03:44:05;;;;;;;8.18;5.20;;;18.90;99.90;;;;;;1888851;75;21060;-85
2022/08/20 03:46:57;;;;;;;6.97;5.92;;;18.90;99.90;;;;;;1901452;75;21121;-85
2022/08/20 03:49:48;;;;;;;5.92;5.42;;;19.00;99.90;;;;;;1905443;75;21086;-85
2022/08/20 03:52:39;;;;;;;6.25;5.60;;;18.90;99.90;;;;;;1884761;75;21129;-85
2022/08/20 03:55:32;;;;;;;6.28;5.75;;;18.90;99.90;;;;;;1884781;76;21576;-85
2022/08/20 03:58:24;;;;;;;6.53;5.47;;;19.00;99.90;;;;;;1884598;76;21232;-86
2022/08/20 04:01:17;;;;;;;6.67;5.90;;;18.90;99.90;;;;;;1896194;75;21055;-86
2022/08/20 04:04:09;;;;;;;6.45;5.80;;;18.90;99.90;;;;;;1895433;75;21063;-86
2022/08/20 04:07:09;;;;;;;6.67;5.87;;;18.80;99.90;;;;;;1884756;75;21100;-86
2022/08/20 04:10:02;;;;;;;6.55;5.85;;;18.70;99.90;;;;;;1885021;75;21503;-88
2022/08/20 04:12:53;;;;;;;6.90;5.50;;;18.70;99.90;;;;;;1884802;76;21102;-82
2022/08/20 04:15:45;;;;;;;6.47;5.62;;;18.70;99.90;;;;;;1884990;75;21739;-82
2022/08/20 04:18:38;;;;;;;6.22;5.47;;;18.70;99.90;;;;;;1915308;75;21118;-83
2022/08/20 04:21:30;;;;;;;6.10;5.50;;;18.60;99.90;;;;;;1904563;74;21589;-83
2022/08/20 04:24:23;;;;;;;8.85;5.85;;;18.70;99.90;;;;;;1888183;75;21096;-84
2022/08/20 04:27:15;;;;;;;6.47;5.87;;;18.70;99.90;;;;;;1888030;75;21103;-84
2022/08/20 04:30:10;;;;;;;6.53;5.90;;;18.60;99.90;;;;;;1884692;76;21141;-83
2022/08/20 04:33:02;;;;;;;6.70;6.00;;;18.60;99.90;;;;;;1884581;75;21075;-85
2022/08/20 04:35:54;;;;;;;6.17;5.58;;;18.60;99.90;;;;;;1884406;75;21654;-85
2022/08/20 04:38:45;;;;;;;6.67;5.90;;;18.60;99.90;;;;;;1887705;75;21144;-82
2022/08/20 04:41:39;;;;;;;8.73;5.55;;;18.60;99.90;;;;;;1886792;75;21184;-82
2022/08/20 04:44:30;;;;;;;6.08;5.47;;;18.60;99.90;;;;;;1889208;75;21056;-83
2022/08/20 04:47:21;;;;;;;6.28;5.67;;;18.60;99.90;;;;;;1871155;75;21051;-83
2022/08/20 04:50:14;;;;;;;6.15;5.55;;;18.60;99.90;;;;;;1872092;77;21237;-83
2022/08/20 04:53:10;;;;;;;6.37;5.22;;;18.60;99.90;;;;;;1891789;75;21212;-83
2022/08/20 04:58:47;;;;;;;5.83;5.33;;;18.60;99.90;;;;;;1911468;72;22246;-83
2022/08/20 05:01:34;;;;;;;6.72;5.50;;;18.60;99.90;;;;;;1917603;75;21184;-82
2022/08/20 05:04:26;;;;;;;8.13;5.47;;;18.60;99.90;;;;;;1919632;73;21515;-82
2022/08/20 05:09:59;;;;;;;6.03;5.47;;;18.50;99.90;;;;;;1929765;72;22120;-83
2022/08/20 05:12:51;;;;;;;6.53;5.92;;;18.50;99.90;;;;;;1913901;74;21142;-85
2022/08/20 05:15:45;;;;;;;8.20;6.30;;;18.50;99.90;;;;;;1916762;75;21059;-81
2022/08/20 05:18:36;;;;;;;8.48;6.20;;;18.60;99.90;;;;;;1886129;75;21128;-88
2022/08/20 05:21:28;;;;;;;8.00;6.15;;;18.60;99.90;;;;;;1907964;73;21046;-85
2022/08/20 05:24:22;;;;;;;6.65;5.42;;;18.50;99.90;;;;;;1904567;73;21044;-82
2022/08/20 05:27:15;;;;;;;10.30;6.08;;;18.60;99.90;;;;;;1902754;75;21090;-80
2022/08/20 05:32:56;;;;;;;8.95;6.58;;;18.60;99.90;;;;;;1938414;72;23176;-79
2022/08/20 05:35:53;;;;;;;6.33;5.70;;;18.60;99.90;;;;;;1904425;75;21169;-80
2022/08/20 05:41:25;;;;;;;6.05;5.53;;;18.70;99.90;;;;;;1945219;72;22175;-81
2022/08/20 05:47:02;;;;;;;6.00;5.50;;;18.90;99.90;;;;;;1940698;72;22166;-81
2022/08/20 05:49:54;;;;;;;6.50;5.60;;;19.00;99.90;;;;;;1898888;75;21063;-84
2022/08/20 05:52:45;;;;;;;6.30;5.05;;;19.10;99.90;;;;;;1904437;75;21105;-82
2022/08/20 05:58:19;;;;;;;7.65;5.50;;;19.40;99.90;;;;;;1941678;72;22266;-81
2022/08/20 06:01:10;;;;;;;6.85;5.40;;;19.50;99.90;;;;;;1924204;73;21175;-82
2022/08/20 06:07:12;;;;;;;8.48;5.95;;;19.70;99.90;;;;;;1925494;73;21038;-86
2022/08/20 06:10:04;;;;;;;9.75;5.47;;;19.70;99.90;;;;;;1931019;73;21531;-84
2022/08/20 06:15:41;;;;;;;5.28;4.78;;;20.00;99.90;;;;;;1959646;72;20217;-89
2022/08/20 06:21:12;;;;;;;6.03;4.55;;;20.50;99.90;;;;;;1929323;72;22241;-89
2022/08/20 06:24:05;;;;;;;5.60;4.45;;;20.60;99.90;;;;;;1894240;75;21549;-89
2022/08/20 06:26:58;;;;;;;8.70;4.85;;;20.80;99.90;;;;;;1890009;75;21122;-89
2022/08/20 06:32:32;;;;;;;6.42;4.60;;;21.10;99.90;;;;;;1939950;72;22141;-91
2022/08/20 06:38:02;;;;;;;7.28;4.85;;;21.20;99.90;;;;;;1937494;72;22150;-88
2022/08/20 06:40:54;;;;;;;6.00;4.33;;;21.30;99.90;;;;;;1898701;75;21121;-76
2022/08/20 06:43:45;;;;;;;5.97;4.30;;;21.30;99.90;;;;;;1895826;75;21028;-75
2022/08/20 06:46:37;;;;;;;5.10;4.60;;;21.30;99.90;;;;;;1880486;75;21059;-75
2022/08/20 06:49:28;;;;;;;4.50;4.10;;;21.50;99.90;;;;;;1873148;75;21100;-75
2022/08/20 06:52:21;;;;;;;5.10;4.60;;;21.50;99.90;;;;;;1878807;75;21158;-84
2022/08/20 06:55:15;;;;;;;4.90;4.40;;;21.50;99.90;;;;;;1886031;75;21102;-87
2022/08/20 07:00:52;;;;;;;6.65;4.30;;;21.70;99.90;;;;;;1943953;72;22145;-86
2022/08/20 07:03:58;;;;;;;7.92;4.53;;;21.70;99.90;;;;;;1933938;73;21138;-86
2022/08/20 07:06:51;;;;;;;7.97;5.03;;;21.70;99.90;;;;;;1923761;73;21085;-87
2022/08/20 07:09:42;;;;;;;8.83;5.40;;;21.70;99.90;;;;;;1922328;73;21043;-87
2022/08/20 07:15:15;;;;;;;5.90;5.15;;;21.80;99.90;;;;;;1937194;72;22213;-87
2022/08/20 07:18:07;;;;;;;6.92;4.90;;;21.80;99.90;;;;;;1905700;74;21058;-87
2022/08/20 07:23:51;;;;;;;6.10;4.87;;;21.80;99.90;;;;;;1944142;72;22315;-87
2022/08/20 07:26:45;;;;;;;5.47;4.58;;;21.80;99.90;;;;;;1866449;76;21183;-88
2022/08/20 07:32:47;;;;;;;7.87;4.28;;;21.70;99.90;;;;;;1927628;73;21240;-90
2022/08/20 07:35:39;;;;;;;5.53;4.33;;;21.70;99.90;;;;;;1935436;73;21190;-87
2022/08/20 07:38:34;;;;;;;5.12;4.42;;;21.60;99.90;;;;;;1922764;73;21043;-82
2022/08/20 07:41:26;;;;;;;5.08;4.47;;;21.60;99.90;;;;;;1925770;73;21050;-80
2022/08/20 07:44:34;;;;;;;4.67;4.22;;;21.50;99.90;;;;;;1934547;73;21529;-80
2022/08/20 07:54:38;;;;;;;6.95;4.80;;;22.20;99.90;;;;;;2032114;69;22110;-82
2022/08/20 07:57:30;;;;;;;6.47;4.90;;;22.50;99.90;;;;;;1970975;71;21534;-82
2022/08/20 08:03:01;;;;;;;7.70;4.47;;;22.70;99.90;;;;;;1945053;72;22227;-82
2022/08/20 08:09:01;;;;;;;5.67;4.12;;;22.80;99.90;;;;;;1944349;72;22081;-87
2022/08/20 08:12:07;;;;;;;7.00;4.50;;;22.70;99.90;;;;;;1919237;73;21102;-87
2022/08/20 08:14:59;;;;;;;5.55;4.58;;;22.70;99.90;;;;;;1933868;73;21590;-90
2022/08/20 08:17:52;;;;;;;6.10;4.83;;;22.80;99.90;;;;;;1940523;73;21090;-88
2022/08/20 08:20:44;;;;;;;6.05;5.00;;;22.70;99.90;;;;;;1937678;73;21160;-88
2022/08/20 08:23:37;;;;;;;8.13;5.40;;;22.60;99.90;;;;;;1920044;73;21084;-88
2022/08/20 08:29:08;;;;;;;5.65;4.62;;;22.50;99.90;;;;;;1949363;72;22140;-87
2022/08/20 08:32:02;;;;;;;5.33;4.60;;;22.40;99.90;;;;;;1905183;75;21042;-87
2022/08/20 08:37:40;;;;;;;6.58;5.45;;;21.70;99.90;;;;;;1940168;73;20105;-90
2022/08/20 08:40:40;;;;;;;7.10;5.87;;;21.80;99.90;;;;;;1928534;73;21050;-91
2022/08/20 08:52:35;;;;;;;4.30;3.90;;;22.20;99.90;;;;;;1933306;72;22195;-89
2022/08/20 08:56:20;;;;;;;;;;;;;;;;;;;;;
2022/08/20 08:59:30;;;;;;;5.12;4.65;;;22.20;99.90;;;;;;1900636;75;21151;-90
2022/08/20 09:02:32;;;;;;;6.17;4.95;;;22.40;99.90;;;;;;1903047;75;21088;-89
2022/08/20 09:08:07;;;;;;;5.72;5.20;;;22.20;99.90;;;;;;1954900;72;22071;-88
2022/08/20 09:11:05;;;;;;;6.62;5.28;;;22.20;99.90;;;;;;1914843;74;21117;-85
2022/08/20 09:14:01;;;;;;;5.70;5.10;;;22.20;99.90;;;;;;1923829;74;21133;-85
2022/08/20 09:20:06;;;;;;;6.87;5.25;;;22.10;99.90;;;;;;1934147;72;22214;-84
2022/08/20 09:39:05;;;;;;;5.90;5.40;;;23.40;99.90;;;;;;1950165;72;22418;-92
2022/08/20 09:42:09;;;;;;;5.97;5.37;;;23.60;99.90;;;;;;1900644;75;21180;-88
2022/08/20 09:45:02;;;;;;;6.45;4.87;;;23.80;99.90;;;;;;1886712;75;21118;-88
2022/08/20 09:47:56;;;;;;;5.22;4.72;;;24.00;99.90;;;;;;1895129;75;21062;-90
2022/08/20 09:53:40;;;;;;;5.53;4.20;;;24.20;99.90;;;;;;1936847;72;22159;-90
2022/08/20 09:59:27;;;;;;;4.47;4.08;;;24.10;99.90;;;;;;1958849;72;22323;-89
2022/08/20 10:02:23;;;;;;;4.78;4.37;;;24.20;99.90;;;;;;1940819;73;21106;-90
2022/08/20 10:08:30;;;;;;;5.62;5.12;;;24.30;99.90;;;;;;1959320;72;22382;-90
2022/08/20 10:11:22;;;;;;;6.90;4.37;;;24.30;99.90;;;;;;1905436;74;21086;-89
2022/08/20 10:14:15;;;;;;;5.45;4.78;;;24.40;99.90;;;;;;1911456;74;21169;-90
2022/08/20 10:17:21;;;;;;;6.62;4.97;;;24.50;99.90;;;;;;1909557;74;21075;-90
2022/08/20 10:20:17;;;;;;;4.65;4.22;;;24.50;99.90;;;;;;1905416;75;21063;-89
2022/08/20 10:23:10;;;;;;;6.35;4.42;;;24.40;99.90;;;;;;1905352;75;21102;-90
2022/08/20 10:26:02;;;;;;;5.20;4.30;;;24.30;99.90;;;;;;1905285;75;21110;-89
2022/08/20 10:29:14;;;;;;;4.83;4.17;;;24.40;99.90;;;;;;1905143;74;21168;-89
2022/08/20 10:32:14;;;;;;;4.70;4.17;;;24.40;99.90;;;;;;1912048;73;21043;-90
2022/08/20 10:35:08;;;;;;;4.50;3.77;;;24.40;99.90;;;;;;1913584;74;21084;-91
2022/08/20 10:38:17;;;;;;;4.05;3.70;;;24.30;99.90;;;;;;1919644;74;21175;-91
2022/08/20 10:44:00;;;;;;;1.60;1.50;;;24.20;99.90;;;;;;1956632;72;22271;-90
2022/08/20 10:46:52;;;;;;;2.98;0.70;;;24.30;99.90;;;;;;1911255;74;21106;-89
2022/08/20 10:49:46;;;;;;;1.67;0.50;;;24.30;99.90;;;;;;1905536;74;21164;-90
2022/08/20 10:52:38;;;;;;;2.15;0.60;;;24.20;99.90;;;;;;1911641;74;21183;-90
2022/08/20 10:58:19;;;;;;;0.30;0.30;;;24.40;99.90;;;;;;1946365;72;22094;-90
2022/08/20 11:01:13;;;;;;;1.20;0.30;;;24.50;99.90;;;;;;1936793;73;21065;-90
2022/08/20 11:04:11;;;;;;;0.20;0.20;;;24.60;99.90;;;;;;1945109;73;21110;-91
2022/08/20 11:07:17;;;;;;;0.40;0.30;;;24.70;99.90;;;;;;1928764;73;21162;-90
2022/08/20 11:12:54;;;;;;;0.55;0.30;;;24.70;99.90;;;;;;1951339;72;22131;-86
2022/08/20 11:15:55;;;;;;;1.27;0.40;;;24.80;99.90;;;;;;1903027;75;21131;-75
2022/08/20 11:18:47;;;;;;;1.65;0.50;;;24.80;99.90;;;;;;1897012;75;21173;-76
2022/08/20 11:24:19;;;;;;;1.07;0.30;;;24.90;99.90;;;;;;1924295;72;22244;-84
2022/08/20 11:27:13;;;;;;;1.05;0.30;;;24.90;99.90;;;;;;1903939;75;21110;-87
2022/08/20 11:30:08;;;;;;;0.53;0.50;;;25.00;99.90;;;;;;1905578;75;21047;-87
2022/08/20 11:33:01;;;;;;;0.40;0.40;;;25.00;99.90;;;;;;1899635;75;21059;-88
2022/08/20 11:38:33;;;;;;;1.17;0.55;;;25.00;99.90;;;;;;1934870;72;22260;-87
2022/08/20 11:41:25;;;;;;;1.55;0.50;;;25.10;99.90;;;;;;1894170;74;21255;-88
2022/08/20 11:44:16;;;;;;;1.65;0.40;;;25.00;99.90;;;;;;1872753;75;21096;-88
2022/08/20 11:50:00;;;;;;;0.62;0.30;;;25.30;99.90;;;;;;1931045;72;22251;-89
2022/08/20 11:55:38;;;;;;;0.30;0.30;;;25.40;99.90;;;;;;1946803;72;22182;-89
2022/08/20 11:58:31;;;;;;;0.40;0.40;;;25.40;99.90;;;;;;1951157;73;21116;-89
2022/08/20 12:01:24;;;;;;;0.60;0.40;;;25.40;99.90;;;;;;1956995;72;21127;-89
2022/08/20 12:04:23;;;;;;;0.42;0.30;;;25.30;99.90;;;;;;1951214;73;21086;-88
2022/08/20 12:07:18;;;;;;;1.27;0.60;;;25.40;99.90;;;;;;1952139;73;21087;-88
2022/08/20 12:10:12;;;;;;;0.55;0.40;;;25.50;99.90;;;;;;1951624;73;21242;-88
2022/08/20 12:13:04;;;;;;;1.12;0.62;;;25.50;99.90;;;;;;1928724;72;21082;-88
2022/08/20 12:15:56;;;;;;;0.40;0.40;;;25.60;99.90;;;;;;1952399;72;21043;-89
2022/08/20 12:18:50;;;;;;;0.75;0.42;;;25.60;99.90;;;;;;1951225;73;21100;-88
2022/08/20 12:21:42;;;;;;;0.60;0.42;;;25.70;99.90;;;;;;1951258;72;21144;-88
2022/08/20 12:24:35;;;;;;;0.62;0.55;;;25.80;99.90;;;;;;1951489;73;21035;-89
2022/08/20 12:27:28;;;;;;;1.00;0.42;;;25.80;99.90;;;;;;1951486;72;21050;-89
2022/08/20 12:30:26;;;;;;;0.80;0.50;;;25.80;99.90;;;;;;1951903;72;21080;-79
2022/08/20 12:36:06;;;;;;;0.65;0.50;;;26.00;99.90;;;;;;1936151;72;20102;-85
2022/08/20 12:38:57;;;;;;;0.98;0.50;;;26.10;99.90;;;;;;1901832;75;21149;-86
2022/08/20 12:44:32;;;;;;;0.88;0.80;;;26.20;99.90;;;;;;1937116;72;22407;-80
2022/08/20 12:47:27;;;;;;;1.05;0.80;;;26.20;99.90;;;;;;1893798;75;21094;-78
2022/08/20 12:50:21;;;;;;;0.50;0.50;;;26.30;99.90;;;;;;1898007;75;21145;-79
2022/08/20 12:53:12;;;;;;;0.50;0.50;;;26.40;99.90;;;;;;1897258;75;21129;-81
2022/08/20 12:58:44;;;;;;;0.40;0.40;;;26.30;99.90;;;;;;1926720;72;22250;-79
2022/08/20 13:01:35;;;;;;;1.50;0.40;;;26.40;99.90;;;;;;1904669;75;21601;-78
2022/08/20 13:04:28;;;;;;;0.90;0.50;;;26.30;99.90;;;;;;1906475;75;21043;-79
2022/08/20 13:09:59;;;;;;;0.85;0.40;;;26.50;99.90;;;;;;1941703;72;22110;-84
2022/08/20 13:12:51;;;;;;;2.55;0.42;;;26.50;99.90;;;;;;1901322;75;21104;-81
2022/08/20 13:18:22;;;;;;;2.20;0.40;;;26.50;99.90;;;;;;1942081;72;22222;-79
2022/08/20 13:21:13;;;;;;;0.82;0.50;;;26.50;99.90;;;;;;1948088;73;21613;-77
2022/08/20 13:24:05;;;;;;;0.45;0.45;;;26.30;99.90;;;;;;1935385;73;21055;-82
2022/08/20 13:27:04;;;;;;;1.65;0.53;;;26.40;99.90;;;;;;1940794;73;21087;-83
2022/08/20 13:29:57;;;;;;;0.65;0.40;;;26.50;99.90;;;;;;1948811;73;21051;-82
2022/08/20 13:38:08;;;;;;;0.40;0.40;;;26.40;99.90;;;;;;1943004;72;22620;-82
2022/08/20 13:43:40;;;;;;;0.47;0.40;;;26.60;99.90;;;;;;1924541;72;22197;-82
2022/08/20 13:46:32;;;;;;;0.23;0.23;;;26.70;99.90;;;;;;1932562;73;21098;-82
2022/08/20 13:49:23;;;;;;;0.30;0.30;;;26.60;99.90;;;;;;1920923;73;21047;-84
2022/08/20 13:52:16;;;;;;;0.50;0.40;;;26.60;99.90;;;;;;1919863;73;21117;-80
2022/08/20 13:55:12;;;;;;;0.65;0.30;;;26.80;99.90;;;;;;1927533;73;21788;-81
2022/08/20 13:58:07;;;;;;;0.40;0.30;;;26.70;99.90;;;;;;1930926;73;21149;-82
2022/08/20 14:00:58;;;;;;;0.50;0.33;;;26.80;99.90;;;;;;1925578;73;21059;-80
2022/08/20 14:03:53;;;;;;;0.82;0.50;;;27.00;99.90;;;;;;1934169;73;21133;-79
2022/08/20 14:06:56;;;;;;;1.35;0.40;;;27.00;99.90;;;;;;1930753;73;21345;-81
2022/08/20 14:09:50;;;;;;;2.30;0.50;;;27.40;99.90;;;;;;1931861;73;21115;-82
2022/08/20 14:12:41;;;;;;;1.37;0.50;;;27.00;99.90;;;;;;1931973;73;21122;-79
2022/08/20 14:18:11;;;;;;;0.37;0.37;;;26.80;99.90;;;;;;1936626;72;22242;-81
2022/08/20 14:21:03;;;;;;;0.30;0.30;;;26.70;99.90;;;;;;1903663;75;21125;-80
2022/08/20 14:24:07;;;;;;;0.53;0.30;;;26.50;99.90;;;;;;1909488;75;21144;-81
2022/08/20 14:29:40;;;;;;;1.95;0.45;;;27.20;99.90;;;;;;1933045;72;22233;-79
2022/08/20 14:32:31;;;;;;;0.85;0.40;;;27.10;99.90;;;;;;1909530;74;21090;-77
2022/08/20 14:35:23;;;;;;;0.42;0.30;;;27.60;99.90;;;;;;1889133;75;21106;-79
2022/08/20 14:38:25;;;;;;;0.72;0.30;;;28.30;99.90;;;;;;1864009;76;21226;-77
2022/08/20 14:43:59;;;;;;;0.95;0.50;;;28.20;99.90;;;;;;1930793;72;22230;-78
2022/08/20 14:46:52;;;;;;;0.40;0.37;;;28.00;99.90;;;;;;1909223;73;21129;-81
2022/08/20 14:49:44;;;;;;;0.50;0.30;;;28.10;99.90;;;;;;1898710;75;21070;-78
2022/08/20 14:52:35;;;;;;;0.88;0.55;;;28.60;99.90;;;;;;1890288;75;21194;-79
2022/08/20 14:58:09;;;;;;;0.55;0.30;;;29.40;99.90;;;;;;1926747;72;22130;-79
2022/08/20 15:03:48;;;;;;;0.30;0.30;;;29.30;99.90;;;;;;1931354;72;22142;-77
2022/08/20 15:09:23;;;;;;;0.68;0.40;;;28.80;99.90;;;;;;1936967;72;22227;-79
2022/08/20 15:12:14;;;;;;;1.22;0.30;;;29.30;99.90;;;;;;1899177;75;21094;-78
2022/08/20 15:15:10;;;;;;;0.40;0.35;;;29.20;99.90;;;;;;1906635;75;21099;-77
2022/08/20 15:18:04;;;;;;;0.70;0.30;;;29.50;99.90;;;;;;1902045;75;21218;-80
2022/08/20 15:23:52;;;;;;;0.30;0.30;;;29.50;99.90;;;;;;1952071;72;22265;-91
2022/08/20 15:29:27;;;;;;;0.40;0.40;;;29.70;99.90;;;;;;1944721;72;22194;-88
2022/08/20 15:32:19;;;;;;;1.70;0.30;;;29.80;99.90;;;;;;1869859;75;21115;-89
2022/08/20 15:35:12;;;;;;;0.65;0.25;;;30.00;99.90;;;;;;1885266;75;21103;-87
2022/08/20 15:38:03;;;;;;;1.90;0.30;;;30.00;99.90;;;;;;1913531;74;21108;-92
2022/08/20 15:40:56;;;;;;;0.85;0.40;;;30.10;99.90;;;;;;1907150;74;21057;-89
2022/08/20 15:43:48;;;;;;;0.70;0.30;;;30.00;99.90;;;;;;1917026;74;21057;-91
2022/08/20 15:46:40;;;;;;;0.35;0.30;;;30.00;99.90;;;;;;1906914;74;21101;-89
2022/08/20 15:49:31;;;;;;;0.78;0.30;;;30.20;99.90;;;;;;1894901;74;21059;-89
2022/08/20 15:52:23;;;;;;;1.02;0.42;;;29.90;99.90;;;;;;1887044;75;21118;-91
2022/08/20 15:55:16;;;;;;;1.80;0.35;;;30.40;99.90;;;;;;1890172;74;21153;-90
2022/08/20 15:58:13;;;;;;;0.53;0.30;;;30.40;99.90;;;;;;1889873;75;21157;-93
2022/08/20 16:01:09;;;;;;;0.70;0.30;;;30.30;99.90;;;;;;1884917;76;21074;-91
2022/08/20 16:07:52;;;;;;;0.68;0.30;;;30.50;99.90;;;;;;1982643;71;22126;-90
2022/08/20 16:10:48;;;;;;;0.45;0.30;;;30.30;99.90;;;;;;2045826;69;21025;-91
2022/08/20 16:13:42;;;;;;;0.40;0.28;;;30.50;99.90;;;;;;2014997;69;21069;-90
2022/08/20 16:19:20;;;;;;;0.60;0.30;;;30.80;99.90;;;;;;1937665;72;22306;-91
2022/08/20 16:22:16;;;;;;;1.00;0.30;;;30.90;99.90;;;;;;1895281;75;21067;-90
2022/08/20 16:25:10;;;;;;;0.30;0.20;;;31.00;99.90;;;;;;1895438;75;21083;-91
2022/08/20 16:34:06;;;;;;;0.55;0.30;;;30.50;99.90;;;;;;1946600;72;22300;-92
2022/08/20 16:37:13;;;;;;;0.30;0.30;;;30.50;99.90;;;;;;1925612;73;21052;-92
2022/08/20 16:40:10;;;;;;;0.82;0.40;;;30.70;99.90;;;;;;1917691;75;21144;-92
2022/08/20 16:43:05;;;;;;;0.90;0.40;;;31.00;99.90;;;;;;1915338;74;21114;-87
2022/08/20 16:48:48;;;;;;;1.47;0.33;;;30.80;99.90;;;;;;1926256;72;22238;-89
2022/08/20 16:51:43;;;;;;;2.62;0.33;;;30.60;99.90;;;;;;1908715;75;21196;-86
2022/08/20 16:54:36;;;;;;;2.02;0.40;;;30.70;99.90;;;;;;1884567;76;21195;-86
2022/08/20 17:00:22;;;;;;;0.30;0.30;;;30.20;99.90;;;;;;1944803;72;22611;-87
2022/08/20 17:03:21;;;;;;;;;;;30.20;99.90;;;;;;1885438;75;21101;-87
2022/08/20 17:06:23;;;;;;;0.55;0.40;;;29.90;99.90;;;;;;1894225;74;20194;-87
2022/08/20 17:09:17;;;;;;;1.60;0.40;;;29.70;99.90;;;;;;1886335;75;21055;-87
2022/08/20 17:12:18;;;;;;;1.65;0.30;;;29.50;99.90;;;;;;1897403;75;21089;-87
2022/08/20 17:15:20;;;;;;;0.47;0.40;;;29.20;99.90;;;;;;1898028;75;21059;-88
2022/08/20 17:21:06;;;;;;;1.05;0.50;;;28.50;99.90;;;;;;1931401;72;22652;-87
2022/08/20 17:24:01;;;;;;;1.57;0.40;;;28.40;99.90;;;;;;1876825;75;21212;-85
2022/08/20 17:26:57;;;;;;;0.30;0.20;;;28.30;99.90;;;;;;1882496;75;21094;-86
2022/08/20 17:29:56;;;;;;;0.68;0.40;;;28.30;99.90;;;;;;1873212;75;21125;-89
2022/08/20 17:38:34;;;;;;;0.40;0.30;;;27.70;99.90;;;;;;1950035;72;22176;-89
2022/08/20 17:44:20;;;;;;;0.70;0.40;;;26.70;99.90;;;;;;1943404;72;22067;-89
2022/08/20 17:47:14;;;;;;;1.05;0.50;;;26.50;99.90;;;;;;1932738;73;21101;-89
2022/08/20 17:50:11;;;;;;;0.93;0.30;;;26.30;99.90;;;;;;1920807;73;21169;-89
2022/08/20 17:53:07;;;;;;;0.37;0.35;;;26.20;99.90;;;;;;1917361;75;21156;-89
2022/08/20 17:56:01;;;;;;;0.30;0.30;;;26.10;99.90;;;;;;1921172;74;21152;-89
2022/08/20 17:58:58;;;;;;;0.60;0.20;;;26.00;99.90;;;;;;1923171;73;21102;-83
2022/08/20 18:01:58;;;;;;;1.67;0.30;;;25.90;99.90;;;;;;1926830;73;21078;-92
2022/08/20 18:04:51;;;;;;;2.08;0.30;;;25.80;99.90;;;;;;1918557;75;21093;-91
2022/08/20 18:08:01;;;;;;;0.88;0.33;;;25.70;99.90;;;;;;1924658;73;21141;-85
2022/08/20 18:39:32;;;;;;;0.45;0.40;;;25.10;99.90;;;;;;1946166;72;22217;-90
2022/08/20 18:45:13;;;;;;;0.53;0.20;;;25.10;99.90;;;;;;2030612;69;22099;-90
2022/08/20 18:48:07;;;;;;;1.92;0.45;;;25.10;99.90;;;;;;1985837;72;21163;-90
2022/08/20 18:57:53;;;;;;;0.20;0.20;;;25.10;99.90;;;;;;2036942;69;22164;-91
2022/08/20 19:03:31;;;;;;;0.93;0.20;;;25.00;99.90;;;;;;1943532;72;22200;-87
2022/08/20 19:06:31;;;;;;;0.30;0.28;;;25.00;99.90;;;;;;1916872;73;21271;-86
2022/08/20 19:09:36;;;;;;;1.10;0.20;;;25.00;99.90;;;;;;1924980;73;21159;-89
2022/08/20 19:15:23;;;;;;;0.50;0.30;;;24.90;99.90;;;;;;1940587;72;22251;-88
2022/08/20 19:18:17;;;;;;;0.20;0.20;;;25.00;99.90;;;;;;1876550;75;21126;-87
2022/08/20 19:21:10;;;;;;;0.20;0.20;;;25.00;99.90;;;;;;1873203;75;21178;-88
2022/08/20 19:24:12;;;;;;;0.35;0.10;;;25.00;99.90;;;;;;1892858;75;21104;-91
2022/08/20 19:27:07;;;;;;;0.90;0.20;;;25.00;99.90;;;;;;1864663;76;21138;-88
2022/08/20 19:29:58;;;;;;;0.62;0.20;;;25.00;99.90;;;;;;1879161;75;21164;-76
2022/08/20 19:32:53;;;;;;;0.23;0.20;;;24.90;99.90;;;;;;1881969;75;21078;-76
2022/08/20 19:38:25;;;;;;;0.95;0.25;;;24.80;99.90;;;;;;1936945;72;22122;-76